sensor_id;sensor_type;location;lat;lon;timestamp;pressure;altitude;pressure_sealevel;temperature;humidity
57232;BME280;43488;46.934;8.276;2022-11-15T00:01:18;96396.97;;;6.38;100.00
57232;BME280;43488;46.934;8.276;2022-11-15T00:03:46;96389.13;;;6.38;100.00
57232;BME280;43488;46.934;8.276;2022-11-15T00:06:13;96393.34;;;6.39;100.00
57232;BME280;43488;46.934;8.276;2022-11-15T00:08:40;96386.88;;;6.35;100.00
57232;BME280;43488;46.934;8.276;2022-11-15T00:11:11;96382.84;;;6.32;100.00
57232;BME280;43488;46.934;8.276;2022-11-15T00:13:39;96381.66;;;6.35;100.00
57232;BME280;43488;46.934;8.276;2022-11-15T00:16:08;96369.03;;;6.38;100.00
57232;BME280;43488;46.934;8.276;2022-11-15T00:18:36;96371.09;;;6.43;100.00
57232;BME280;43488;46.934;8.276;2022-11-15T00:21:07;96369.03;;;6.38;100.00
57232;BME280;43488;46.934;8.276;2022-11-15T00:23:36;96370.09;;;6.44;100.00
57232;BME280;43488;46.934;8.276;2022-11-15T00:26:04;96360.88;;;6.48;100.00
57232;BME280;43488;46.934;8.276;2022-11-15T00:28:32;96361.44;;;6.43;100.00
57232;BME280;43488;46.934;8.276;2022-11-15T00:31:02;96366.47;;;6.45;100.00
57232;BME280;43488;46.934;8.276;2022-11-15T00:33:30;96363.88;;;6.45;100.00
57232;BME280;43488;46.934;8.276;2022-11-15T00:36:07;96361.06;;;6.46;100.00
57232;BME280;43488;46.934;8.276;2022-11-15T00:38:39;96361.69;;;6.48;100.00
57232;BME280;43488;46.934;8.276;2022-11-15T00:41:08;96359.88;;;6.49;100.00
57232;BME280;43488;46.934;8.276;2022-11-15T00:43:35;96365.94;;;6.49;100.00
57232;BME280;43488;46.934;8.276;2022-11-15T00:46:03;96363.16;;;6.51;100.00
57232;BME280;43488;46.934;8.276;2022-11-15T00:48:30;96366.38;;;6.53;100.00
57232;BME280;43488;46.934;8.276;2022-11-15T00:50:58;96360.53;;;6.51;100.00
57232;BME280;43488;46.934;8.276;2022-11-15T00:53:25;96357.72;;;6.52;100.00
57232;BME280;43488;46.934;8.276;2022-11-15T00:55:53;96356.72;;;6.53;100.00
57232;BME280;43488;46.934;8.276;2022-11-15T00:58:20;96366.00;;;6.56;100.00
57232;BME280;43488;46.934;8.276;2022-11-15T01:00:49;96351.91;;;6.57;100.00
57232;BME280;43488;46.934;8.276;2022-11-15T01:03:16;96341.09;;;6.60;100.00
57232;BME280;43488;46.934;8.276;2022-11-15T01:05:43;96348.69;;;6.55;100.00
57232;BME280;43488;46.934;8.276;2022-11-15T01:08:16;96343.47;;;6.55;100.00
57232;BME280;43488;46.934;8.276;2022-11-15T01:10:43;96345.84;;;6.50;100.00
57232;BME280;43488;46.934;8.276;2022-11-15T01:13:11;96338.00;;;6.50;100.00
57232;BME280;43488;46.934;8.276;2022-11-15T01:15:40;96347.44;;;6.51;100.00
57232;BME280;43488;46.934;8.276;2022-11-15T01:18:08;96355.91;;;6.53;100.00
57232;BME280;43488;46.934;8.276;2022-11-15T01:20:41;96357.44;;;6.47;100.00
57232;BME280;43488;46.934;8.276;2022-11-15T01:23:09;96354.03;;;6.47;100.00
57232;BME280;43488;46.934;8.276;2022-11-15T01:25:37;96345.94;;;6.42;100.00
57232;BME280;43488;46.934;8.276;2022-11-15T01:28:05;96346.94;;;6.41;100.00
57232;BME280;43488;46.934;8.276;2022-11-15T01:30:33;96335.69;;;6.40;100.00
57232;BME280;43488;46.934;8.276;2022-11-15T01:33:01;96329.25;;;6.43;100.00
57232;BME280;43488;46.934;8.276;2022-11-15T01:35:29;96330.88;;;6.44;100.00
57232;BME280;43488;46.934;8.276;2022-11-15T01:37:57;96328.63;;;6.41;100.00
57232;BME280;43488;46.934;8.276;2022-11-15T01:40:26;96324.38;;;6.40;100.00
57232;BME280;43488;46.934;8.276;2022-11-15T01:42:54;96312.56;;;6.44;100.00
57232;BME280;43488;46.934;8.276;2022-11-15T01:45:21;96318.22;;;6.47;100.00
57232;BME280;43488;46.934;8.276;2022-11-15T01:47:53;96311.84;;;6.50;100.00
57232;BME280;43488;46.934;8.276;2022-11-15T01:50:27;96313.81;;;6.48;100.00
57232;BME280;43488;46.934;8.276;2022-11-15T01:52:56;96304.16;;;6.48;100.00
57232;BME280;43488;46.934;8.276;2022-11-15T01:55:26;96301.53;;;6.48;100.00
57232;BME280;43488;46.934;8.276;2022-11-15T01:57:59;96304.16;;;6.48;100.00
57232;BME280;43488;46.934;8.276;2022-11-15T02:00:31;96295.69;;;6.46;100.00
57232;BME280;43488;46.934;8.276;2022-11-15T02:02:58;96294.88;;;6.46;100.00
57232;BME280;43488;46.934;8.276;2022-11-15T02:05:26;96295.50;;;6.48;100.00
57232;BME280;43488;46.934;8.276;2022-11-15T02:07:54;96296.31;;;6.48;100.00
57232;BME280;43488;46.934;8.276;2022-11-15T02:10:24;96300.72;;;6.48;100.00
57232;BME280;43488;46.934;8.276;2022-11-15T02:12:53;96295.34;;;6.49;100.00
57232;BME280;43488;46.934;8.276;2022-11-15T02:15:22;96285.69;;;6.50;100.00
57232;BME280;43488;46.934;8.276;2022-11-15T02:18:26;96276.03;;;6.50;100.00
57232;BME280;43488;46.934;8.276;2022-11-15T02:29:57;96265.59;;;6.57;100.00
57232;BME280;43488;46.934;8.276;2022-11-15T02:38:28;96239.47;;;6.57;100.00
57232;BME280;43488;46.934;8.276;2022-11-15T02:41:40;96246.50;;;6.56;100.00
57232;BME280;43488;46.934;8.276;2022-11-15T02:44:37;96236.22;;;6.55;100.00
57232;BME280;43488;46.934;8.276;2022-11-15T02:47:09;96232.81;;;6.54;100.00
57232;BME280;43488;46.934;8.276;2022-11-15T02:52:23;96231.13;;;6.47;100.00
57232;BME280;43488;46.934;8.276;2022-11-15T02:54:59;96232.50;;;6.43;100.00
57232;BME280;43488;46.934;8.276;2022-11-15T02:57:50;96230.25;;;6.40;100.00
57232;BME280;43488;46.934;8.276;2022-11-15T03:00:20;96228.59;;;6.32;100.00
57232;BME280;43488;46.934;8.276;2022-11-15T03:03:21;96227.78;;;6.32;100.00
57232;BME280;43488;46.934;8.276;2022-11-15T03:06:24;96221.69;;;6.24;100.00
57232;BME280;43488;46.934;8.276;2022-11-15T03:09:21;96221.22;;;6.21;100.00
57232;BME280;43488;46.934;8.276;2022-11-15T03:12:01;96231.25;;;6.17;100.00
57232;BME280;43488;46.934;8.276;2022-11-15T03:14:37;96222.41;;;6.18;100.00
57232;BME280;43488;46.934;8.276;2022-11-15T03:17:13;96227.84;;;6.17;100.00
57232;BME280;43488;46.934;8.276;2022-11-15T03:22:21;96236.22;;;6.12;100.00
57232;BME280;43488;46.934;8.276;2022-11-15T03:24:54;96234.59;;;6.11;100.00
57232;BME280;43488;46.934;8.276;2022-11-15T03:27:27;96235.56;;;6.04;100.00
57232;BME280;43488;46.934;8.276;2022-11-15T03:30:02;96233.09;;;6.02;100.00
57232;BME280;43488;46.934;8.276;2022-11-15T03:32:43;96216.19;;;5.98;100.00
57232;BME280;43488;46.934;8.276;2022-11-15T03:35:40;96223.84;;;5.99;100.00
57232;BME280;43488;46.934;8.276;2022-11-15T03:38:27;96210.97;;;5.98;100.00
57232;BME280;43488;46.934;8.276;2022-11-15T03:41:04;96213.16;;;5.94;100.00
57232;BME280;43488;46.934;8.276;2022-11-15T03:46:16;96221.00;;;5.94;100.00
57232;BME280;43488;46.934;8.276;2022-11-15T03:48:59;96214.50;;;5.90;100.00
57232;BME280;43488;46.934;8.276;2022-11-15T03:51:29;96209.88;;;5.92;100.00
57232;BME280;43488;46.934;8.276;2022-11-15T03:53:56;96208.44;;;5.90;100.00
57232;BME280;43488;46.934;8.276;2022-11-15T03:56:24;96203.66;;;5.93;100.00
57232;BME280;43488;46.934;8.276;2022-11-15T03:58:51;96206.81;;;5.89;100.00
57232;BME280;43488;46.934;8.276;2022-11-15T04:01:19;96202.13;;;5.84;100.00
57232;BME280;43488;46.934;8.276;2022-11-15T04:03:47;96201.97;;;5.86;100.00
57232;BME280;43488;46.934;8.276;2022-11-15T04:06:15;96200.16;;;5.86;100.00
57232;BME280;43488;46.934;8.276;2022-11-15T04:08:42;96199.97;;;5.88;100.00
57232;BME280;43488;46.934;8.276;2022-11-15T04:11:10;96189.34;;;5.89;100.00
57232;BME280;43488;46.934;8.276;2022-11-15T04:13:37;96189.72;;;5.86;100.00
57232;BME280;43488;46.934;8.276;2022-11-15T04:16:05;96199.97;;;5.88;100.00
57232;BME280;43488;46.934;8.276;2022-11-15T04:18:32;96192.13;;;5.88;100.00
57232;BME280;43488;46.934;8.276;2022-11-15T04:21:00;96193.75;;;5.89;100.00
57232;BME280;43488;46.934;8.276;2022-11-15T04:23:46;96195.09;;;5.85;100.00
57232;BME280;43488;46.934;8.276;2022-11-15T04:26:32;96191.88;;;5.83;100.00
57232;BME280;43488;46.934;8.276;2022-11-15T04:29:00;96189.06;;;5.84;100.00
57232;BME280;43488;46.934;8.276;2022-11-15T04:31:46;96194.25;;;5.78;100.00
57232;BME280;43488;46.934;8.276;2022-11-15T04:34:13;96184.97;;;5.75;100.00
57232;BME280;43488;46.934;8.276;2022-11-15T04:36:40;96183.72;;;5.71;100.00
57232;BME280;43488;46.934;8.276;2022-11-15T04:39:26;96175.88;;;5.71;100.00
57232;BME280;43488;46.934;8.276;2022-11-15T04:41:54;96187.50;;;5.68;100.00
57232;BME280;43488;46.934;8.276;2022-11-15T04:44:21;96176.25;;;5.68;100.00
57232;BME280;43488;46.934;8.276;2022-11-15T04:46:48;96165.81;;;5.68;100.00
57232;BME280;43488;46.934;8.276;2022-11-15T04:49:16;96161.41;;;5.68;100.00
57232;BME280;43488;46.934;8.276;2022-11-15T04:51:45;96170.03;;;5.69;100.00
57232;BME280;43488;46.934;8.276;2022-11-15T04:54:12;96172.19;;;5.65;100.00
57232;BME280;43488;46.934;8.276;2022-11-15T04:56:40;96175.63;;;5.66;100.00
57232;BME280;43488;46.934;8.276;2022-11-15T04:59:08;96167.78;;;5.66;100.00
57232;BME280;43488;46.934;8.276;2022-11-15T05:01:35;96166.16;;;5.65;100.00
57232;BME280;43488;46.934;8.276;2022-11-15T05:04:03;96167.16;;;5.64;100.00
57232;BME280;43488;46.934;8.276;2022-11-15T05:06:50;96164.56;;;5.64;100.00
57232;BME280;43488;46.934;8.276;2022-11-15T05:09:19;96161.50;;;5.60;100.00
57232;BME280;43488;46.934;8.276;2022-11-15T05:11:48;96170.34;;;5.59;100.00
57232;BME280;43488;46.934;8.276;2022-11-15T05:14:15;96168.72;;;5.58;100.00
57232;BME280;43488;46.934;8.276;2022-11-15T05:16:43;96165.84;;;5.53;100.00
57232;BME280;43488;46.934;8.276;2022-11-15T05:19:10;96161.53;;;5.46;100.00
57232;BME280;43488;46.934;8.276;2022-11-15T05:21:38;96157.88;;;5.40;100.00
57232;BME280;43488;46.934;8.276;2022-11-15T05:24:05;96154.25;;;5.41;100.00
57232;BME280;43488;46.934;8.276;2022-11-15T05:26:33;96149.03;;;5.41;100.00
57232;BME280;43488;46.934;8.276;2022-11-15T05:29:01;96145.63;;;5.40;100.00
57232;BME280;43488;46.934;8.276;2022-11-15T05:31:29;96142.38;;;5.38;100.00
57232;BME280;43488;46.934;8.276;2022-11-15T05:33:56;96149.22;;;5.39;100.00
57232;BME280;43488;46.934;8.276;2022-11-15T05:36:29;96145.78;;;5.39;100.00
57232;BME280;43488;46.934;8.276;2022-11-15T05:38:58;96144.16;;;5.38;100.00
57232;BME280;43488;46.934;8.276;2022-11-15T05:41:37;96143.38;;;5.37;100.00
57232;BME280;43488;46.934;8.276;2022-11-15T05:44:09;96143.56;;;5.36;100.00
57232;BME280;43488;46.934;8.276;2022-11-15T05:46:38;96140.56;;;5.39;100.00
57232;BME280;43488;46.934;8.276;2022-11-15T05:49:12;96134.53;;;5.38;100.00
57232;BME280;43488;46.934;8.276;2022-11-15T05:51:41;96129.16;;;5.40;100.00
57232;BME280;43488;46.934;8.276;2022-11-15T05:54:11;96121.94;;;5.42;100.00
57232;BME280;43488;46.934;8.276;2022-11-15T05:56:39;96128.78;;;5.43;100.00
57232;BME280;43488;46.934;8.276;2022-11-15T05:59:08;96126.16;;;5.43;100.00
57232;BME280;43488;46.934;8.276;2022-11-15T06:01:36;96131.19;;;5.45;100.00
57232;BME280;43488;46.934;8.276;2022-11-15T06:04:05;96134.81;;;5.43;100.00
57232;BME280;43488;46.934;8.276;2022-11-15T06:06:33;96138.84;;;5.46;100.00
57232;BME280;43488;46.934;8.276;2022-11-15T06:09:00;96134.00;;;5.43;100.00
57232;BME280;43488;46.934;8.276;2022-11-15T06:11:28;96132.19;;;5.43;100.00
57232;BME280;43488;46.934;8.276;2022-11-15T06:13:56;96133.00;;;5.44;100.00
57232;BME280;43488;46.934;8.276;2022-11-15T06:16:23;96140.84;;;5.44;100.00
57232;BME280;43488;46.934;8.276;2022-11-15T06:18:51;96136.00;;;5.41;100.00
57232;BME280;43488;46.934;8.276;2022-11-15T06:21:22;96143.81;;;5.41;100.00
57232;BME280;43488;46.934;8.276;2022-11-15T06:23:50;96139.22;;;5.43;100.00
57232;BME280;43488;46.934;8.276;2022-11-15T06:26:17;96134.63;;;5.45;100.00
57232;BME280;43488;46.934;8.276;2022-11-15T06:28:44;96135.81;;;5.42;100.00
57232;BME280;43488;46.934;8.276;2022-11-15T06:31:12;96140.03;;;5.43;100.00
57232;BME280;43488;46.934;8.276;2022-11-15T06:33:40;96143.06;;;5.47;100.00
57232;BME280;43488;46.934;8.276;2022-11-15T06:36:11;96130.66;;;5.49;100.00
57232;BME280;43488;46.934;8.276;2022-11-15T06:38:40;96140.91;;;5.51;100.00
57232;BME280;43488;46.934;8.276;2022-11-15T06:41:10;96143.06;;;5.47;100.00
57232;BME280;43488;46.934;8.276;2022-11-15T06:43:37;96144.53;;;5.50;100.00
57232;BME280;43488;46.934;8.276;2022-11-15T06:46:06;96143.72;;;5.49;100.00
57232;BME280;43488;46.934;8.276;2022-11-15T06:48:34;96151.56;;;5.49;100.00
57232;BME280;43488;46.934;8.276;2022-11-15T06:51:03;96152.50;;;5.48;100.00
57232;BME280;43488;46.934;8.276;2022-11-15T06:53:31;96152.97;;;5.52;100.00
57232;BME280;43488;46.934;8.276;2022-11-15T06:56:02;96153.41;;;5.55;100.00
57232;BME280;43488;46.934;8.276;2022-11-15T06:58:29;96157.63;;;5.56;100.00
57232;BME280;43488;46.934;8.276;2022-11-15T07:01:03;96153.59;;;5.54;100.00
57232;BME280;43488;46.934;8.276;2022-11-15T07:03:31;96149.19;;;5.54;100.00
57232;BME280;43488;46.934;8.276;2022-11-15T07:05:59;96152.41;;;5.56;100.00
57232;BME280;43488;46.934;8.276;2022-11-15T07:08:28;96143.84;;;5.62;100.00
57232;BME280;43488;46.934;8.276;2022-11-15T07:11:02;96147.69;;;5.66;100.00
57232;BME280;43488;46.934;8.276;2022-11-15T07:13:31;96150.38;;;5.73;100.00
57232;BME280;43488;46.934;8.276;2022-11-15T07:16:08;96148.47;;;5.82;100.00
57232;BME280;43488;46.934;8.276;2022-11-15T07:18:39;96142.03;;;5.84;100.00
57232;BME280;43488;46.934;8.276;2022-11-15T07:21:09;96150.88;;;5.83;100.00
57232;BME280;43488;46.934;8.276;2022-11-15T07:23:38;96149.06;;;5.84;100.00
57232;BME280;43488;46.934;8.276;2022-11-15T07:26:07;96140.69;;;5.88;100.00
57232;BME280;43488;46.934;8.276;2022-11-15T07:28:35;96140.97;;;5.93;100.00
57232;BME280;43488;46.934;8.276;2022-11-15T07:31:06;96147.88;;;6.01;100.00
57232;BME280;43488;46.934;8.276;2022-11-15T07:33:34;96137.06;;;6.04;100.00
57232;BME280;43488;46.934;8.276;2022-11-15T07:36:04;96140.09;;;6.08;100.00
57232;BME280;43488;46.934;8.276;2022-11-15T07:38:34;96139.53;;;6.12;100.00
57232;BME280;43488;46.934;8.276;2022-11-15T07:41:04;96135.13;;;6.13;100.00
57232;BME280;43488;46.934;8.276;2022-11-15T07:43:32;96150.03;;;6.19;100.00
57232;BME280;43488;46.934;8.276;2022-11-15T07:46:07;96136.03;;;6.26;100.00
57232;BME280;43488;46.934;8.276;2022-11-15T07:48:37;96140.06;;;6.29;100.00
57232;BME280;43488;46.934;8.276;2022-11-15T07:51:09;96140.50;;;6.33;100.00
57232;BME280;43488;46.934;8.276;2022-11-15T07:53:37;96138.50;;;6.35;100.00
57232;BME280;43488;46.934;8.276;2022-11-15T07:56:07;96142.78;;;6.42;100.00
57232;BME280;43488;46.934;8.276;2022-11-15T07:58:35;96136.97;;;6.47;100.00
57232;BME280;43488;46.934;8.276;2022-11-15T08:01:05;96136.22;;;6.53;100.00
57232;BME280;43488;46.934;8.276;2022-11-15T08:03:32;96138.44;;;6.56;100.00
57232;BME280;43488;46.934;8.276;2022-11-15T08:06:00;96122.41;;;6.59;100.00
57232;BME280;43488;46.934;8.276;2022-11-15T08:08:27;96121.00;;;6.63;100.00
57232;BME280;43488;46.934;8.276;2022-11-15T08:10:59;96125.47;;;6.69;100.00
57232;BME280;43488;46.934;8.276;2022-11-15T08:13:26;96115.84;;;6.76;100.00
57232;BME280;43488;46.934;8.276;2022-11-15T08:16:01;96122.53;;;6.85;100.00
57232;BME280;43488;46.934;8.276;2022-11-15T08:18:29;96112.31;;;6.91;100.00
57232;BME280;43488;46.934;8.276;2022-11-15T08:21:03;96105.50;;;6.96;100.00
57232;BME280;43488;46.934;8.276;2022-11-15T08:23:30;96109.13;;;7.02;100.00
57232;BME280;43488;46.934;8.276;2022-11-15T08:26:04;96106.94;;;7.05;100.00
57232;BME280;43488;46.934;8.276;2022-11-15T08:28:32;96119.25;;;7.11;100.00
57232;BME280;43488;46.934;8.276;2022-11-15T08:31:00;96118.28;;;7.19;100.00
57232;BME280;43488;46.934;8.276;2022-11-15T08:33:27;96119.91;;;7.27;100.00
57232;BME280;43488;46.934;8.276;2022-11-15T08:35:59;96106.88;;;7.33;100.00
57232;BME280;43488;46.934;8.276;2022-11-15T08:38:27;96106.88;;;7.40;100.00
57232;BME280;43488;46.934;8.276;2022-11-15T08:41:04;96108.94;;;7.51;100.00
57232;BME280;43488;46.934;8.276;2022-11-15T08:43:31;96097.66;;;7.57;100.00
57232;BME280;43488;46.934;8.276;2022-11-15T08:45:59;96103.09;;;7.62;100.00
57232;BME280;43488;46.934;8.276;2022-11-15T08:48:26;96097.25;;;7.67;100.00
57232;BME280;43488;46.934;8.276;2022-11-15T08:50:55;96107.56;;;7.75;100.00
57232;BME280;43488;46.934;8.276;2022-11-15T08:53:23;96103.13;;;7.82;100.00
57232;BME280;43488;46.934;8.276;2022-11-15T08:55:50;96110.81;;;7.90;100.00
57232;BME280;43488;46.934;8.276;2022-11-15T08:58:17;96108.00;;;7.92;100.00
57232;BME280;43488;46.934;8.276;2022-11-15T09:00:44;96104.38;;;7.99;100.00
57232;BME280;43488;46.934;8.276;2022-11-15T09:03:12;96097.31;;;8.07;100.00
57232;BME280;43488;46.934;8.276;2022-11-15T09:05:39;96099.75;;;8.08;100.00
57232;BME280;43488;46.934;8.276;2022-11-15T09:08:06;96098.53;;;8.11;100.00
57232;BME280;43488;46.934;8.276;2022-11-15T09:10:34;96089.44;;;8.13;100.00
57232;BME280;43488;46.934;8.276;2022-11-15T09:13:01;96099.34;;;8.11;100.00
57232;BME280;43488;46.934;8.276;2022-11-15T09:15:28;96100.75;;;8.14;100.00
57232;BME280;43488;46.934;8.276;2022-11-15T09:17:58;96102.16;;;8.16;100.00
57232;BME280;43488;46.934;8.276;2022-11-15T09:20:27;96104.16;;;8.21;100.00
57232;BME280;43488;46.934;8.276;2022-11-15T09:22:54;96110.63;;;8.18;100.00
57232;BME280;43488;46.934;8.276;2022-11-15T09:25:22;96113.25;;;8.18;100.00
57232;BME280;43488;46.934;8.276;2022-11-15T09:27:49;96115.28;;;8.23;100.00
57232;BME280;43488;46.934;8.276;2022-11-15T09:30:18;96119.53;;;8.24;100.00
57232;BME280;43488;46.934;8.276;2022-11-15T09:32:45;96114.06;;;8.32;100.00
57232;BME280;43488;46.934;8.276;2022-11-15T09:35:12;96115.91;;;8.38;100.00
57232;BME280;43488;46.934;8.276;2022-11-15T09:37:40;96110.44;;;8.46;100.00
57232;BME280;43488;46.934;8.276;2022-11-15T09:40:12;96113.28;;;8.51;100.00
57232;BME280;43488;46.934;8.276;2022-11-15T09:45:23;96111.03;;;8.62;100.00
57232;BME280;43488;46.934;8.276;2022-11-15T09:48:18;96101.94;;;8.71;100.00
57232;BME280;43488;46.934;8.276;2022-11-15T09:50:51;96106.34;;;8.77;100.00
57232;BME280;43488;46.934;8.276;2022-11-15T09:53:34;96102.53;;;8.79;100.00
57232;BME280;43488;46.934;8.276;2022-11-15T09:56:26;96104.34;;;8.79;100.00
57232;BME280;43488;46.934;8.276;2022-11-15T10:04:36;96093.84;;;8.79;100.00
57232;BME280;43488;46.934;8.276;2022-11-15T10:07:45;96094.03;;;8.84;100.00
57232;BME280;43488;46.934;8.276;2022-11-15T10:12:58;96095.25;;;8.88;100.00
57232;BME280;43488;46.934;8.276;2022-11-15T10:15:26;96090.00;;;8.88;100.00
57232;BME280;43488;46.934;8.276;2022-11-15T10:18:13;96093.63;;;8.87;100.00
57232;BME280;43488;46.934;8.276;2022-11-15T10:20:52;96082.88;;;8.95;100.00
57232;BME280;43488;46.934;8.276;2022-11-15T10:23:23;96078.66;;;8.94;100.00
57232;BME280;43488;46.934;8.276;2022-11-15T10:25:58;96080.88;;;8.97;100.00
57232;BME280;43488;46.934;8.276;2022-11-15T10:28:29;96080.47;;;9.00;100.00
57232;BME280;43488;46.934;8.276;2022-11-15T10:30:58;96078.63;;;9.07;100.00
57232;BME280;43488;46.934;8.276;2022-11-15T10:36:20;96080.38;;;9.20;100.00
57232;BME280;43488;46.934;8.276;2022-11-15T10:41:40;96068.03;;;9.27;100.00
57232;BME280;43488;46.934;8.276;2022-11-15T10:44:25;96076.28;;;9.31;100.00
57232;BME280;43488;46.934;8.276;2022-11-15T10:49:28;96069.81;;;9.33;100.00
57232;BME280;43488;46.934;8.276;2022-11-15T10:52:19;96069.22;;;9.31;100.00
57232;BME280;43488;46.934;8.276;2022-11-15T10:57:51;96063.94;;;9.31;100.00
57232;BME280;43488;46.934;8.276;2022-11-15T11:03:01;96053.00;;;9.41;100.00
57232;BME280;43488;46.934;8.276;2022-11-15T11:05:38;96047.53;;;9.43;100.00
57232;BME280;43488;46.934;8.276;2022-11-15T11:08:23;96038.66;;;9.44;100.00
57232;BME280;43488;46.934;8.276;2022-11-15T11:10:58;96032.97;;;9.47;100.00
57232;BME280;43488;46.934;8.276;2022-11-15T11:13:37;96036.34;;;9.54;100.00
57232;BME280;43488;46.934;8.276;2022-11-15T11:19:18;96011.22;;;9.64;98.00
57232;BME280;43488;46.934;8.276;2022-11-15T11:25:08;96008.22;;;9.86;100.00
57232;BME280;43488;46.934;8.276;2022-11-15T11:31:24;95997.97;;;10.03;98.16
57232;BME280;43488;46.934;8.276;2022-11-15T11:34:40;96002.38;;;10.09;92.75
57232;BME280;43488;46.934;8.276;2022-11-15T11:37:35;95994.44;;;10.15;92.62
57232;BME280;43488;46.934;8.276;2022-11-15T11:40:16;95983.03;;;10.21;91.79
57232;BME280;43488;46.934;8.276;2022-11-15T11:48:33;95970.59;;;10.35;89.99
57232;BME280;43488;46.934;8.276;2022-11-15T11:51:18;95970.94;;;10.39;90.33
57232;BME280;43488;46.934;8.276;2022-11-15T11:53:57;95971.00;;;10.32;88.17
57232;BME280;43488;46.934;8.276;2022-11-15T11:56:31;95967.56;;;10.32;87.05
57232;BME280;43488;46.934;8.276;2022-11-15T11:59:38;95962.91;;;10.34;86.64
57232;BME280;43488;46.934;8.276;2022-11-15T12:02:37;95951.38;;;10.35;84.92
57232;BME280;43488;46.934;8.276;2022-11-15T12:05:42;95941.66;;;10.35;83.85
57232;BME280;43488;46.934;8.276;2022-11-15T12:08:20;95945.66;;;10.38;84.61
57232;BME280;43488;46.934;8.276;2022-11-15T12:11:13;95940.03;;;10.34;88.24
57232;BME280;43488;46.934;8.276;2022-11-15T12:13:43;95936.16;;;10.37;89.50
57232;BME280;43488;46.934;8.276;2022-11-15T12:16:29;95931.47;;;10.39;90.36
57232;BME280;43488;46.934;8.276;2022-11-15T12:19:01;95927.25;;;10.38;90.12
57232;BME280;43488;46.934;8.276;2022-11-15T12:24:19;95918.47;;;10.44;90.43
57232;BME280;43488;46.934;8.276;2022-11-15T12:29:51;95898.34;;;10.49;93.18
57232;BME280;43488;46.934;8.276;2022-11-15T12:32:33;95900.75;;;10.51;90.84
57232;BME280;43488;46.934;8.276;2022-11-15T12:35:04;95897.53;;;10.49;90.14
57232;BME280;43488;46.934;8.276;2022-11-15T12:40:27;95893.59;;;10.40;88.60
57232;BME280;43488;46.934;8.276;2022-11-15T12:45:45;95879.53;;;10.34;87.03
57232;BME280;43488;46.934;8.276;2022-11-15T12:50:56;95867.97;;;10.35;87.17
57232;BME280;43488;46.934;8.276;2022-11-15T12:53:31;95871.41;;;10.36;88.12
57232;BME280;43488;46.934;8.276;2022-11-15T12:58:59;95857.44;;;10.35;88.07
57232;BME280;43488;46.934;8.276;2022-11-15T13:07:04;95832.88;;;10.41;88.52
57232;BME280;43488;46.934;8.276;2022-11-15T13:17:55;95818.91;;;10.41;88.86
57232;BME280;43488;46.934;8.276;2022-11-15T13:20:31;95813.44;;;10.42;88.79
57232;BME280;43488;46.934;8.276;2022-11-15T13:23:13;95800.63;;;10.46;89.32
57232;BME280;43488;46.934;8.276;2022-11-15T13:26:02;95799.59;;;10.47;88.92
57232;BME280;43488;46.934;8.276;2022-11-15T13:28:44;95800.19;;;10.49;88.14
57232;BME280;43488;46.934;8.276;2022-11-15T13:33:59;95789.22;;;10.52;84.62
57232;BME280;43488;46.934;8.276;2022-11-15T13:36:31;95782.47;;;10.56;85.47
57232;BME280;43488;46.934;8.276;2022-11-15T13:39:25;95780.19;;;10.60;85.79
57232;BME280;43488;46.934;8.276;2022-11-15T13:41:53;95776.75;;;10.59;83.90
57232;BME280;43488;46.934;8.276;2022-11-15T13:44:25;95767.81;;;10.60;84.45
57232;BME280;43488;46.934;8.276;2022-11-15T13:47:21;95758.94;;;10.61;86.30
57232;BME280;43488;46.934;8.276;2022-11-15T13:49:51;95756.50;;;10.60;86.66
57232;BME280;43488;46.934;8.276;2022-11-15T13:52:19;95752.50;;;10.57;86.86
57232;BME280;43488;46.934;8.276;2022-11-15T13:55:15;95753.38;;;10.51;86.68
57232;BME280;43488;46.934;8.276;2022-11-15T13:57:56;95750.97;;;10.49;86.57
57232;BME280;43488;46.934;8.276;2022-11-15T14:02:57;95744.81;;;10.44;85.02
57232;BME280;43488;46.934;8.276;2022-11-15T14:05:32;95738.13;;;10.41;85.22
57232;BME280;43488;46.934;8.276;2022-11-15T14:08:13;95735.75;;;10.40;85.89
57232;BME280;43488;46.934;8.276;2022-11-15T14:10:48;95741.00;;;10.40;86.05
57232;BME280;43488;46.934;8.276;2022-11-15T14:13:32;95732.31;;;10.39;86.83
57232;BME280;43488;46.934;8.276;2022-11-15T14:16:20;95726.38;;;10.44;86.09
57232;BME280;43488;46.934;8.276;2022-11-15T14:18:51;95720.16;;;11.38;84.13
57232;BME280;43488;46.934;8.276;2022-11-15T14:21:19;95716.66;;;11.73;79.33
57232;BME280;43488;46.934;8.276;2022-11-15T14:23:47;95716.22;;;11.64;78.40
57232;BME280;43488;46.934;8.276;2022-11-15T14:26:30;95716.09;;;11.59;79.13
57232;BME280;43488;46.934;8.276;2022-11-15T14:29:22;95705.91;;;11.51;79.22
57232;BME280;43488;46.934;8.276;2022-11-15T14:31:51;95703.31;;;11.39;79.17
57232;BME280;43488;46.934;8.276;2022-11-15T14:34:19;95703.66;;;11.31;79.97
57232;BME280;43488;46.934;8.276;2022-11-15T14:36:48;95700.25;;;11.19;80.07
57232;BME280;43488;46.934;8.276;2022-11-15T14:39:15;95690.53;;;11.08;78.57
57232;BME280;43488;46.934;8.276;2022-11-15T14:41:43;95689.81;;;11.01;79.13
57232;BME280;43488;46.934;8.276;2022-11-15T14:44:13;95692.56;;;10.94;79.83
57232;BME280;43488;46.934;8.276;2022-11-15T14:46:45;95683.41;;;10.85;81.05
57232;BME280;43488;46.934;8.276;2022-11-15T14:49:12;95678.25;;;10.78;81.91
57232;BME280;43488;46.934;8.276;2022-11-15T14:51:41;95681.00;;;10.72;81.81
57232;BME280;43488;46.934;8.276;2022-11-15T14:54:12;95673.78;;;10.67;82.29
57232;BME280;43488;46.934;8.276;2022-11-15T14:56:39;95676.53;;;10.61;84.21
57232;BME280;43488;46.934;8.276;2022-11-15T14:59:07;95674.44;;;10.51;82.33
57232;BME280;43488;46.934;8.276;2022-11-15T15:01:34;95669.31;;;10.44;83.56
57232;BME280;43488;46.934;8.276;2022-11-15T15:04:02;95672.81;;;10.38;83.57
57232;BME280;43488;46.934;8.276;2022-11-15T15:06:29;95669.06;;;10.34;84.67
57232;BME280;43488;46.934;8.276;2022-11-15T15:08:58;95664.22;;;10.31;85.49